sensor_id;sensor_type;location;lat;lon;timestamp;P1;P2;P0
63305;PMS5003;50735;52.060;1.248;2023-11-19T00:00:33;25;13;
63305;PMS5003;50735;52.060;1.248;2023-11-19T00:03:05;9;6;
63305;PMS5003;50735;52.060;1.248;2023-11-19T00:05:36;13;10;
63305;PMS5003;50735;52.060;1.248;2023-11-19T00:08:09;7;5;
63305;PMS5003;50735;52.060;1.248;2023-11-19T00:10:40;11;8;
63305;PMS5003;50735;52.060;1.248;2023-11-19T00:13:12;11;10;
63305;PMS5003;50735;52.060;1.248;2023-11-19T00:15:44;18;6;
63305;PMS5003;50735;52.060;1.248;2023-11-19T00:18:16;13;9;
63305;PMS5003;50735;52.060;1.248;2023-11-19T00:20:47;10;8;
63305;PMS5003;50735;52.060;1.248;2023-11-19T00:23:19;12;6;
63305;PMS5003;50735;52.060;1.248;2023-11-19T00:25:50;11;8;
63305;PMS5003;50735;52.060;1.248;2023-11-19T00:28:22;14;7;
63305;PMS5003;50735;52.060;1.248;2023-11-19T00:30:53;21;8;
63305;PMS5003;50735;52.060;1.248;2023-11-19T00:33:25;10;7;
63305;PMS5003;50735;52.060;1.248;2023-11-19T00:35:56;15;12;
63305;PMS5003;50735;52.060;1.248;2023-11-19T00:38:28;18;7;
63305;PMS5003;50735;52.060;1.248;2023-11-19T00:41:00;18;8;
63305;PMS5003;50735;52.060;1.248;2023-11-19T00:43:31;8;7;
63305;PMS5003;50735;52.060;1.248;2023-11-19T00:46:03;8;6;
63305;PMS5003;50735;52.060;1.248;2023-11-19T00:48:39;21;7;
63305;PMS5003;50735;52.060;1.248;2023-11-19T00:51:11;27;12;
63305;PMS5003;50735;52.060;1.248;2023-11-19T00:53:43;14;8;
63305;PMS5003;50735;52.060;1.248;2023-11-19T00:56:15;20;8;
63305;PMS5003;50735;52.060;1.248;2023-11-19T00:58:47;13;8;
63305;PMS5003;50735;52.060;1.248;2023-11-19T01:01:20;17;8;
63305;PMS5003;50735;52.060;1.248;2023-11-19T01:03:51;19;8;
63305;PMS5003;50735;52.060;1.248;2023-11-19T01:06:26;9;8;
63305;PMS5003;50735;52.060;1.248;2023-11-19T01:08:58;15;9;
63305;PMS5003;50735;52.060;1.248;2023-11-19T01:11:30;15;12;
63305;PMS5003;50735;52.060;1.248;2023-11-19T01:14:02;9;7;
63305;PMS5003;50735;52.060;1.248;2023-11-19T01:16:34;12;8;
63305;PMS5003;50735;52.060;1.248;2023-11-19T01:19:06;10;6;
63305;PMS5003;50735;52.060;1.248;2023-11-19T01:21:38;17;9;
63305;PMS5003;50735;52.060;1.248;2023-11-19T01:24:10;15;9;
63305;PMS5003;50735;52.060;1.248;2023-11-19T01:26:42;16;10;
63305;PMS5003;50735;52.060;1.248;2023-11-19T01:29:14;16;12;
63305;PMS5003;50735;52.060;1.248;2023-11-19T01:31:46;10;7;
63305;PMS5003;50735;52.060;1.248;2023-11-19T01:34:19;19;8;
63305;PMS5003;50735;52.060;1.248;2023-11-19T01:36:51;20;13;
63305;PMS5003;50735;52.060;1.248;2023-11-19T01:39:23;14;8;
63305;PMS5003;50735;52.060;1.248;2023-11-19T01:41:55;14;13;
63305;PMS5003;50735;52.060;1.248;2023-11-19T01:44:27;15;7;
63305;PMS5003;50735;52.060;1.248;2023-11-19T01:46:59;15;12;
63305;PMS5003;50735;52.060;1.248;2023-11-19T01:49:31;21;12;
63305;PMS5003;50735;52.060;1.248;2023-11-19T01:52:03;12;8;
63305;PMS5003;50735;52.060;1.248;2023-11-19T01:54:36;12;7;
63305;PMS5003;50735;52.060;1.248;2023-11-19T01:57:08;11;10;
63305;PMS5003;50735;52.060;1.248;2023-11-19T01:59:40;15;8;
63305;PMS5003;50735;52.060;1.248;2023-11-19T02:02:12;13;10;
63305;PMS5003;50735;52.060;1.248;2023-11-19T02:04:44;11;5;
63305;PMS5003;50735;52.060;1.248;2023-11-19T02:07:16;10;7;
63305;PMS5003;50735;52.060;1.248;2023-11-19T02:09:48;17;8;
63305;PMS5003;50735;52.060;1.248;2023-11-19T02:12:20;10;8;
63305;PMS5003;50735;52.060;1.248;2023-11-19T02:14:51;16;8;
63305;PMS5003;50735;52.060;1.248;2023-11-19T02:17:26;20;13;
63305;PMS5003;50735;52.060;1.248;2023-11-19T02:19:58;10;7;
63305;PMS5003;50735;52.060;1.248;2023-11-19T02:22:30;14;9;
63305;PMS5003;50735;52.060;1.248;2023-11-19T02:25:04;17;8;
63305;PMS5003;50735;52.060;1.248;2023-11-19T02:27:43;10;8;
63305;PMS5003;50735;52.060;1.248;2023-11-19T02:30:20;13;10;
63305;PMS5003;50735;52.060;1.248;2023-11-19T02:32:52;12;7;
63305;PMS5003;50735;52.060;1.248;2023-11-19T02:35:25;15;7;
63305;PMS5003;50735;52.060;1.248;2023-11-19T02:37:57;9;7;
63305;PMS5003;50735;52.060;1.248;2023-11-19T02:40:30;15;7;
63305;PMS5003;50735;52.060;1.248;2023-11-19T02:43:02;11;8;
63305;PMS5003;50735;52.060;1.248;2023-11-19T02:45:33;17;10;
63305;PMS5003;50735;52.060;1.248;2023-11-19T02:48:05;13;7;
63305;PMS5003;50735;52.060;1.248;2023-11-19T02:50:37;18;9;
63305;PMS5003;50735;52.060;1.248;2023-11-19T02:53:09;22;7;
63305;PMS5003;50735;52.060;1.248;2023-11-19T02:55:40;12;7;
63305;PMS5003;50735;52.060;1.248;2023-11-19T02:58:12;19;10;
63305;PMS5003;50735;52.060;1.248;2023-11-19T03:00:44;10;7;
63305;PMS5003;50735;52.060;1.248;2023-11-19T03:03:16;12;8;
63305;PMS5003;50735;52.060;1.248;2023-11-19T03:05:48;14;7;
63305;PMS5003;50735;52.060;1.248;2023-11-19T03:08:20;21;9;
63305;PMS5003;50735;52.060;1.248;2023-11-19T03:10:52;12;7;
63305;PMS5003;50735;52.060;1.248;2023-11-19T03:13:24;12;6;
63305;PMS5003;50735;52.060;1.248;2023-11-19T03:15:55;18;8;
63305;PMS5003;50735;52.060;1.248;2023-11-19T03:18:27;11;5;
63305;PMS5003;50735;52.060;1.248;2023-11-19T03:20:59;12;9;
63305;PMS5003;50735;52.060;1.248;2023-11-19T03:23:30;12;5;
63305;PMS5003;50735;52.060;1.248;2023-11-19T03:26:03;9;7;
63305;PMS5003;50735;52.060;1.248;2023-11-19T03:28:35;16;11;
63305;PMS5003;50735;52.060;1.248;2023-11-19T03:31:07;12;7;
63305;PMS5003;50735;52.060;1.248;2023-11-19T03:33:39;14;5;
63305;PMS5003;50735;52.060;1.248;2023-11-19T03:36:11;10;6;
63305;PMS5003;50735;52.060;1.248;2023-11-19T03:38:43;12;7;
63305;PMS5003;50735;52.060;1.248;2023-11-19T03:41:15;18;12;
63305;PMS5003;50735;52.060;1.248;2023-11-19T03:43:47;8;6;
63305;PMS5003;50735;52.060;1.248;2023-11-19T03:46:18;9;6;
63305;PMS5003;50735;52.060;1.248;2023-11-19T03:48:51;13;9;
63305;PMS5003;50735;52.060;1.248;2023-11-19T03:51:22;18;9;
63305;PMS5003;50735;52.060;1.248;2023-11-19T03:53:54;15;4;
63305;PMS5003;50735;52.060;1.248;2023-11-19T03:56:26;14;8;
63305;PMS5003;50735;52.060;1.248;2023-11-19T03:58:58;15;7;
63305;PMS5003;50735;52.060;1.248;2023-11-19T04:01:30;18;8;
63305;PMS5003;50735;52.060;1.248;2023-11-19T04:04:01;13;8;
63305;PMS5003;50735;52.060;1.248;2023-11-19T04:06:33;14;5;
63305;PMS5003;50735;52.060;1.248;2023-11-19T04:09:05;8;5;
63305;PMS5003;50735;52.060;1.248;2023-11-19T04:11:36;16;7;
63305;PMS5003;50735;52.060;1.248;2023-11-19T04:14:08;15;9;
63305;PMS5003;50735;52.060;1.248;2023-11-19T04:16:40;10;7;
63305;PMS5003;50735;52.060;1.248;2023-11-19T04:19:12;19;9;
63305;PMS5003;50735;52.060;1.248;2023-11-19T04:21:44;13;9;
63305;PMS5003;50735;52.060;1.248;2023-11-19T04:24:17;10;7;
63305;PMS5003;50735;52.060;1.248;2023-11-19T04:26:48;10;8;
63305;PMS5003;50735;52.060;1.248;2023-11-19T04:29:20;13;6;
63305;PMS5003;50735;52.060;1.248;2023-11-19T04:31:52;12;6;
63305;PMS5003;50735;52.060;1.248;2023-11-19T04:34:24;9;4;
63305;PMS5003;50735;52.060;1.248;2023-11-19T04:36:56;9;7;
63305;PMS5003;50735;52.060;1.248;2023-11-19T04:39:27;10;3;
63305;PMS5003;50735;52.060;1.248;2023-11-19T04:41:59;10;8;
63305;PMS5003;50735;52.060;1.248;2023-11-19T04:44:31;16;10;
63305;PMS5003;50735;52.060;1.248;2023-11-19T04:47:03;15;12;
63305;PMS5003;50735;52.060;1.248;2023-11-19T04:49:39;18;11;
63305;PMS5003;50735;52.060;1.248;2023-11-19T04:52:11;12;6;
63305;PMS5003;50735;52.060;1.248;2023-11-19T04:54:43;17;6;
63305;PMS5003;50735;52.060;1.248;2023-11-19T04:57:15;13;8;
63305;PMS5003;50735;52.060;1.248;2023-11-19T04:59:48;8;5;
63305;PMS5003;50735;52.060;1.248;2023-11-19T05:02:20;10;5;
63305;PMS5003;50735;52.060;1.248;2023-11-19T05:04:51;13;6;
63305;PMS5003;50735;52.060;1.248;2023-11-19T05:07:23;8;7;
63305;PMS5003;50735;52.060;1.248;2023-11-19T05:09:55;16;7;
63305;PMS5003;50735;52.060;1.248;2023-11-19T05:12:27;16;10;
63305;PMS5003;50735;52.060;1.248;2023-11-19T05:14:58;12;7;
63305;PMS5003;50735;52.060;1.248;2023-11-19T05:17:30;16;10;
63305;PMS5003;50735;52.060;1.248;2023-11-19T05:20:02;10;4;
63305;PMS5003;50735;52.060;1.248;2023-11-19T05:22:34;9;6;
63305;PMS5003;50735;52.060;1.248;2023-11-19T05:25:06;15;5;
63305;PMS5003;50735;52.060;1.248;2023-11-19T05:27:38;12;6;
63305;PMS5003;50735;52.060;1.248;2023-11-19T05:30:10;11;5;
63305;PMS5003;50735;52.060;1.248;2023-11-19T05:32:42;8;8;
63305;PMS5003;50735;52.060;1.248;2023-11-19T05:35:14;11;7;
63305;PMS5003;50735;52.060;1.248;2023-11-19T05:37:46;10;5;
63305;PMS5003;50735;52.060;1.248;2023-11-19T05:40:18;8;6;
63305;PMS5003;50735;52.060;1.248;2023-11-19T05:42:50;19;9;
63305;PMS5003;50735;52.060;1.248;2023-11-19T05:45:22;9;6;
63305;PMS5003;50735;52.060;1.248;2023-11-19T05:47:54;9;5;
63305;PMS5003;50735;52.060;1.248;2023-11-19T05:50:25;14;8;
63305;PMS5003;50735;52.060;1.248;2023-11-19T05:52:57;13;6;
63305;PMS5003;50735;52.060;1.248;2023-11-19T05:55:29;14;10;
63305;PMS5003;50735;52.060;1.248;2023-11-19T05:58:00;18;7;
63305;PMS5003;50735;52.060;1.248;2023-11-19T06:00:33;18;7;
63305;PMS5003;50735;52.060;1.248;2023-11-19T06:03:05;7;7;
63305;PMS5003;50735;52.060;1.248;2023-11-19T06:05:36;9;4;
63305;PMS5003;50735;52.060;1.248;2023-11-19T06:08:08;9;6;
63305;PMS5003;50735;52.060;1.248;2023-11-19T06:10:40;9;5;
63305;PMS5003;50735;52.060;1.248;2023-11-19T06:13:12;10;8;
63305;PMS5003;50735;52.060;1.248;2023-11-19T06:15:44;7;5;
63305;PMS5003;50735;52.060;1.248;2023-11-19T06:18:16;7;5;
63305;PMS5003;50735;52.060;1.248;2023-11-19T06:20:48;17;7;
63305;PMS5003;50735;52.060;1.248;2023-11-19T06:23:20;13;7;
63305;PMS5003;50735;52.060;1.248;2023-11-19T06:25:52;14;10;
63305;PMS5003;50735;52.060;1.248;2023-11-19T06:28:24;7;7;
63305;PMS5003;50735;52.060;1.248;2023-11-19T06:30:57;15;9;
63305;PMS5003;50735;52.060;1.248;2023-11-19T06:33:28;15;7;
63305;PMS5003;50735;52.060;1.248;2023-11-19T06:36:00;13;7;
63305;PMS5003;50735;52.060;1.248;2023-11-19T06:38:32;11;6;
63305;PMS5003;50735;52.060;1.248;2023-11-19T06:41:07;12;6;
63305;PMS5003;50735;52.060;1.248;2023-11-19T06:43:39;11;8;
63305;PMS5003;50735;52.060;1.248;2023-11-19T06:46:18;13;6;
63305;PMS5003;50735;52.060;1.248;2023-11-19T06:48:50;13;5;
63305;PMS5003;50735;52.060;1.248;2023-11-19T06:51:21;11;6;
63305;PMS5003;50735;52.060;1.248;2023-11-19T06:53:53;9;5;
63305;PMS5003;50735;52.060;1.248;2023-11-19T06:56:24;10;5;
63305;PMS5003;50735;52.060;1.248;2023-11-19T06:58:56;12;5;
63305;PMS5003;50735;52.060;1.248;2023-11-19T07:01:28;10;7;
63305;PMS5003;50735;52.060;1.248;2023-11-19T07:03:59;10;3;
63305;PMS5003;50735;52.060;1.248;2023-11-19T07:06:31;9;4;
63305;PMS5003;50735;52.060;1.248;2023-11-19T07:09:03;15;9;
63305;PMS5003;50735;52.060;1.248;2023-11-19T07:11:36;13;6;
63305;PMS5003;50735;52.060;1.248;2023-11-19T07:14:08;16;10;
63305;PMS5003;50735;52.060;1.248;2023-11-19T07:16:41;13;9;
63305;PMS5003;50735;52.060;1.248;2023-11-19T07:19:12;13;4;
63305;PMS5003;50735;52.060;1.248;2023-11-19T07:21:44;13;6;
63305;PMS5003;50735;52.060;1.248;2023-11-19T07:24:15;7;2;
63305;PMS5003;50735;52.060;1.248;2023-11-19T07:26:47;11;6;
63305;PMS5003;50735;52.060;1.248;2023-11-19T07:29:19;7;4;
63305;PMS5003;50735;52.060;1.248;2023-11-19T07:31:51;11;4;
63305;PMS5003;50735;52.060;1.248;2023-11-19T07:34:23;19;9;
63305;PMS5003;50735;52.060;1.248;2023-11-19T07:36:55;10;7;
63305;PMS5003;50735;52.060;1.248;2023-11-19T07:39:27;9;7;
63305;PMS5003;50735;52.060;1.248;2023-11-19T07:41:59;11;5;
63305;PMS5003;50735;52.060;1.248;2023-11-19T07:44:30;11;6;
63305;PMS5003;50735;52.060;1.248;2023-11-19T07:47:02;11;6;
63305;PMS5003;50735;52.060;1.248;2023-11-19T07:49:34;9;7;
63305;PMS5003;50735;52.060;1.248;2023-11-19T07:52:06;11;5;
63305;PMS5003;50735;52.060;1.248;2023-11-19T07:54:37;10;6;
63305;PMS5003;50735;52.060;1.248;2023-11-19T07:57:09;13;7;
63305;PMS5003;50735;52.060;1.248;2023-11-19T07:59:41;3;3;
63305;PMS5003;50735;52.060;1.248;2023-11-19T08:02:13;9;7;
63305;PMS5003;50735;52.060;1.248;2023-11-19T08:04:45;13;3;
63305;PMS5003;50735;52.060;1.248;2023-11-19T08:07:17;11;8;
63305;PMS5003;50735;52.060;1.248;2023-11-19T08:09:49;10;8;
63305;PMS5003;50735;52.060;1.248;2023-11-19T08:12:22;9;6;
63305;PMS5003;50735;52.060;1.248;2023-11-19T08:14:54;11;10;
63305;PMS5003;50735;52.060;1.248;2023-11-19T08:17:26;5;3;
63305;PMS5003;50735;52.060;1.248;2023-11-19T08:19:57;8;6;
63305;PMS5003;50735;52.060;1.248;2023-11-19T08:22:29;9;6;
63305;PMS5003;50735;52.060;1.248;2023-11-19T08:25:01;14;5;
63305;PMS5003;50735;52.060;1.248;2023-11-19T08:27:33;10;5;
63305;PMS5003;50735;52.060;1.248;2023-11-19T08:30:05;8;5;
63305;PMS5003;50735;52.060;1.248;2023-11-19T08:32:38;8;6;
63305;PMS5003;50735;52.060;1.248;2023-11-19T08:35:09;8;4;
63305;PMS5003;50735;52.060;1.248;2023-11-19T08:37:41;12;6;
63305;PMS5003;50735;52.060;1.248;2023-11-19T08:40:13;8;5;
63305;PMS5003;50735;52.060;1.248;2023-11-19T08:42:45;11;8;
63305;PMS5003;50735;52.060;1.248;2023-11-19T08:45:17;11;6;
63305;PMS5003;50735;52.060;1.248;2023-11-19T08:47:49;11;4;
63305;PMS5003;50735;52.060;1.248;2023-11-19T08:50:21;8;5;
63305;PMS5003;50735;52.060;1.248;2023-11-19T08:52:52;16;5;
63305;PMS5003;50735;52.060;1.248;2023-11-19T08:55:24;11;3;
63305;PMS5003;50735;52.060;1.248;2023-11-19T08:57:56;10;5;
63305;PMS5003;50735;52.060;1.248;2023-11-19T09:00:28;11;6;
63305;PMS5003;50735;52.060;1.248;2023-11-19T09:03:00;12;6;
63305;PMS5003;50735;52.060;1.248;2023-11-19T09:05:32;12;5;
63305;PMS5003;50735;52.060;1.248;2023-11-19T09:08:03;11;6;
63305;PMS5003;50735;52.060;1.248;2023-11-19T09:10:35;8;6;
63305;PMS5003;50735;52.060;1.248;2023-11-19T09:13:07;7;4;
63305;PMS5003;50735;52.060;1.248;2023-11-19T09:15:38;12;4;
63305;PMS5003;50735;52.060;1.248;2023-11-19T09:18:10;12;5;
63305;PMS5003;50735;52.060;1.248;2023-11-19T09:20:42;6;3;
63305;PMS5003;50735;52.060;1.248;2023-11-19T09:23:14;10;4;
63305;PMS5003;50735;52.060;1.248;2023-11-19T09:25:46;8;3;
63305;PMS5003;50735;52.060;1.248;2023-11-19T09:28:17;10;5;
63305;PMS5003;50735;52.060;1.248;2023-11-19T09:30:49;7;5;
63305;PMS5003;50735;52.060;1.248;2023-11-19T09:33:20;8;3;
63305;PMS5003;50735;52.060;1.248;2023-11-19T09:35:52;6;4;
63305;PMS5003;50735;52.060;1.248;2023-11-19T09:38:24;4;3;
63305;PMS5003;50735;52.060;1.248;2023-11-19T09:40:55;7;5;
63305;PMS5003;50735;52.060;1.248;2023-11-19T09:43:29;8;5;
63305;PMS5003;50735;52.060;1.248;2023-11-19T09:46:03;17;7;
63305;PMS5003;50735;52.060;1.248;2023-11-19T09:48:37;7;4;
63305;PMS5003;50735;52.060;1.248;2023-11-19T09:51:10;12;4;
63305;PMS5003;50735;52.060;1.248;2023-11-19T09:53:42;4;3;
63305;PMS5003;50735;52.060;1.248;2023-11-19T09:56:14;8;4;
63305;PMS5003;50735;52.060;1.248;2023-11-19T09:58:46;4;4;
63305;PMS5003;50735;52.060;1.248;2023-11-19T10:01:17;7;5;
63305;PMS5003;50735;52.060;1.248;2023-11-19T10:03:49;10;3;
63305;PMS5003;50735;52.060;1.248;2023-11-19T10:06:24;10;4;
63305;PMS5003;50735;52.060;1.248;2023-11-19T10:08:56;15;2;
63305;PMS5003;50735;52.060;1.248;2023-11-19T10:11:29;9;3;
63305;PMS5003;50735;52.060;1.248;2023-11-19T10:14:01;7;3;
63305;PMS5003;50735;52.060;1.248;2023-11-19T10:16:34;5;3;
63305;PMS5003;50735;52.060;1.248;2023-11-19T10:19:06;17;5;
63305;PMS5003;50735;52.060;1.248;2023-11-19T10:21:38;8;4;
63305;PMS5003;50735;52.060;1.248;2023-11-19T10:24:10;6;3;
63305;PMS5003;50735;52.060;1.248;2023-11-19T10:26:42;4;2;
63305;PMS5003;50735;52.060;1.248;2023-11-19T10:29:13;8;3;
63305;PMS5003;50735;52.060;1.248;2023-11-19T10:31:50;2;2;
63305;PMS5003;50735;52.060;1.248;2023-11-19T10:34:27;2;2;
63305;PMS5003;50735;52.060;1.248;2023-11-19T10:36:59;6;3;
63305;PMS5003;50735;52.060;1.248;2023-11-19T10:39:33;8;4;
63305;PMS5003;50735;52.060;1.248;2023-11-19T10:42:23;6;3;
63305;PMS5003;50735;52.060;1.248;2023-11-19T10:44:55;3;3;
63305;PMS5003;50735;52.060;1.248;2023-11-19T10:47:27;5;2;
63305;PMS5003;50735;52.060;1.248;2023-11-19T10:49:59;6;4;
63305;PMS5003;50735;52.060;1.248;2023-11-19T10:52:31;4;3;
63305;PMS5003;50735;52.060;1.248;2023-11-19T10:55:04;8;2;
63305;PMS5003;50735;52.060;1.248;2023-11-19T10:57:43;3;3;
63305;PMS5003;50735;52.060;1.248;2023-11-19T11:00:18;5;3;
63305;PMS5003;50735;52.060;1.248;2023-11-19T11:02:54;5;2;
63305;PMS5003;50735;52.060;1.248;2023-11-19T11:05:32;4;3;
63305;PMS5003;50735;52.060;1.248;2023-11-19T11:08:04;5;4;
63305;PMS5003;50735;52.060;1.248;2023-11-19T11:10:39;5;4;
63305;PMS5003;50735;52.060;1.248;2023-11-19T11:13:14;4;2;
63305;PMS5003;50735;52.060;1.248;2023-11-19T11:15:47;3;2;
63305;PMS5003;50735;52.060;1.248;2023-11-19T11:18:20;5;1;
63305;PMS5003;50735;52.060;1.248;2023-11-19T11:20:52;17;4;
63305;PMS5003;50735;52.060;1.248;2023-11-19T11:23:36;1;1;
63305;PMS5003;50735;52.060;1.248;2023-11-19T11:26:23;3;1;
63305;PMS5003;50735;52.060;1.248;2023-11-19T11:29:09;4;2;
63305;PMS5003;50735;52.060;1.248;2023-11-19T11:31:48;2;2;
63305;PMS5003;50735;52.060;1.248;2023-11-19T11:34:40;6;3;
63305;PMS5003;50735;52.060;1.248;2023-11-19T11:37:25;9;6;
63305;PMS5003;50735;52.060;1.248;2023-11-19T11:40:02;3;3;
63305;PMS5003;50735;52.060;1.248;2023-11-19T11:42:34;3;1;
63305;PMS5003;50735;52.060;1.248;2023-11-19T11:45:07;4;4;
63305;PMS5003;50735;52.060;1.248;2023-11-19T11:48:13;3;3;
63305;PMS5003;50735;52.060;1.248;2023-11-19T11:50:47;4;1;
63305;PMS5003;50735;52.060;1.248;2023-11-19T11:53:22;5;4;
63305;PMS5003;50735;52.060;1.248;2023-11-19T11:55:55;7;2;
63305;PMS5003;50735;52.060;1.248;2023-11-19T11:58:29;7;4;
63305;PMS5003;50735;52.060;1.248;2023-11-19T12:01:03;1;1;
63305;PMS5003;50735;52.060;1.248;2023-11-19T12:03:37;4;3;
63305;PMS5003;50735;52.060;1.248;2023-11-19T12:06:09;4;3;
63305;PMS5003;50735;52.060;1.248;2023-11-19T12:08:42;6;2;
63305;PMS5003;50735;52.060;1.248;2023-11-19T12:11:15;10;3;
63305;PMS5003;50735;52.060;1.248;2023-11-19T12:13:53;10;3;
63305;PMS5003;50735;52.060;1.248;2023-11-19T12:16:26;6;2;
63305;PMS5003;50735;52.060;1.248;2023-11-19T12:19:00;6;1;
63305;PMS5003;50735;52.060;1.248;2023-11-19T12:21:34;5;3;
63305;PMS5003;50735;52.060;1.248;2023-11-19T12:24:06;12;2;
63305;PMS5003;50735;52.060;1.248;2023-11-19T12:26:39;4;3;
63305;PMS5003;50735;52.060;1.248;2023-11-19T12:29:12;5;2;
63305;PMS5003;50735;52.060;1.248;2023-11-19T12:31:44;3;1;
63305;PMS5003;50735;52.060;1.248;2023-11-19T12:34:16;4;4;
63305;PMS5003;50735;52.060;1.248;2023-11-19T12:36:47;3;3;
63305;PMS5003;50735;52.060;1.248;2023-11-19T12:39:19;8;4;
63305;PMS5003;50735;52.060;1.248;2023-11-19T12:41:52;6;4;
63305;PMS5003;50735;52.060;1.248;2023-11-19T12:44:24;9;4;
63305;PMS5003;50735;52.060;1.248;2023-11-19T12:47:04;2;0;
63305;PMS5003;50735;52.060;1.248;2023-11-19T12:49:36;4;4;
63305;PMS5003;50735;52.060;1.248;2023-11-19T12:52:11;9;2;
63305;PMS5003;50735;52.060;1.248;2023-11-19T12:54:43;4;2;
63305;PMS5003;50735;52.060;1.248;2023-11-19T12:57:15;3;3;
63305;PMS5003;50735;52.060;1.248;2023-11-19T12:59:54;4;3;
63305;PMS5003;50735;52.060;1.248;2023-11-19T13:02:44;7;2;
63305;PMS5003;50735;52.060;1.248;2023-11-19T13:05:21;4;2;
63305;PMS5003;50735;52.060;1.248;2023-11-19T13:07:58;10;2;
63305;PMS5003;50735;52.060;1.248;2023-11-19T13:10:32;4;2;
63305;PMS5003;50735;52.060;1.248;2023-11-19T13:13:05;6;4;
63305;PMS5003;50735;52.060;1.248;2023-11-19T13:15:38;4;2;
63305;PMS5003;50735;52.060;1.248;2023-11-19T13:18:10;4;4;
63305;PMS5003;50735;52.060;1.248;2023-11-19T13:20:42;5;4;
63305;PMS5003;50735;52.060;1.248;2023-11-19T13:23:14;7;3;
63305;PMS5003;50735;52.060;1.248;2023-11-19T13:25:46;8;3;
63305;PMS5003;50735;52.060;1.248;2023-11-19T13:28:18;7;3;
63305;PMS5003;50735;52.060;1.248;2023-11-19T13:30:50;6;1;
63305;PMS5003;50735;52.060;1.248;2023-11-19T13:33:22;1;1;
63305;PMS5003;50735;52.060;1.248;2023-11-19T13:35:53;5;2;
63305;PMS5003;50735;52.060;1.248;2023-11-19T13:38:26;4;3;
63305;PMS5003;50735;52.060;1.248;2023-11-19T13:40:58;8;2;
63305;PMS5003;50735;52.060;1.248;2023-11-19T13:43:29;6;1;
63305;PMS5003;50735;52.060;1.248;2023-11-19T13:46:02;5;4;
63305;PMS5003;50735;52.060;1.248;2023-11-19T13:48:35;6;2;
63305;PMS5003;50735;52.060;1.248;2023-11-19T13:51:07;4;1;
63305;PMS5003;50735;52.060;1.248;2023-11-19T13:53:38;3;1;
63305;PMS5003;50735;52.060;1.248;2023-11-19T13:56:10;1;1;
63305;PMS5003;50735;52.060;1.248;2023-11-19T13:58:42;3;3;
63305;PMS5003;50735;52.060;1.248;2023-11-19T14:01:13;4;3;
63305;PMS5003;50735;52.060;1.248;2023-11-19T14:03:45;2;2;
63305;PMS5003;50735;52.060;1.248;2023-11-19T14:06:17;5;0;
63305;PMS5003;50735;52.060;1.248;2023-11-19T14:08:49;2;2;
63305;PMS5003;50735;52.060;1.248;2023-11-19T14:11:20;6;2;
63305;PMS5003;50735;52.060;1.248;2023-11-19T14:13:52;2;1;
63305;PMS5003;50735;52.060;1.248;2023-11-19T14:16:26;2;1;
63305;PMS5003;50735;52.060;1.248;2023-11-19T14:18:58;4;2;
63305;PMS5003;50735;52.060;1.248;2023-11-19T14:21:29;1;1;
63305;PMS5003;50735;52.060;1.248;2023-11-19T14:24:01;3;2;
63305;PMS5003;50735;52.060;1.248;2023-11-19T14:26:33;4;3;
63305;PMS5003;50735;52.060;1.248;2023-11-19T14:29:04;4;2;
63305;PMS5003;50735;52.060;1.248;2023-11-19T14:31:36;5;2;
63305;PMS5003;50735;52.060;1.248;2023-11-19T14:34:08;2;2;
63305;PMS5003;50735;52.060;1.248;2023-11-19T14:36:39;5;2;
63305;PMS5003;50735;52.060;1.248;2023-11-19T14:39:11;1;1;
63305;PMS5003;50735;52.060;1.248;2023-11-19T14:41:43;4;3;
63305;PMS5003;50735;52.060;1.248;2023-11-19T14:44:15;7;2;
63305;PMS5003;50735;52.060;1.248;2023-11-19T14:46:46;8;3;
63305;PMS5003;50735;52.060;1.248;2023-11-19T14:49:18;1;1;
63305;PMS5003;50735;52.060;1.248;2023-11-19T14:51:50;5;3;
63305;PMS5003;50735;52.060;1.248;2023-11-19T14:54:22;4;2;
63305;PMS5003;50735;52.060;1.248;2023-11-19T14:56:54;4;1;
63305;PMS5003;50735;52.060;1.248;2023-11-19T14:59:26;3;1;
63305;PMS5003;50735;52.060;1.248;2023-11-19T15:01:57;7;2;
63305;PMS5003;50735;52.060;1.248;2023-11-19T15:04:29;1;1;
63305;PMS5003;50735;52.060;1.248;2023-11-19T15:07:01;2;2;
63305;PMS5003;50735;52.060;1.248;2023-11-19T15:09:33;4;1;
63305;PMS5003;50735;52.060;1.248;2023-11-19T15:12:05;2;2;
63305;PMS5003;50735;52.060;1.248;2023-11-19T15:14:37;6;2;
63305;PMS5003;50735;52.060;1.248;2023-11-19T15:17:09;5;2;
63305;PMS5003;50735;52.060;1.248;2023-11-19T15:19:41;7;2;
63305;PMS5003;50735;52.060;1.248;2023-11-19T15:22:13;1;1;
63305;PMS5003;50735;52.060;1.248;2023-11-19T15:24:44;3;2;
63305;PMS5003;50735;52.060;1.248;2023-11-19T15:27:16;4;1;
63305;PMS5003;50735;52.060;1.248;2023-11-19T15:29:48;2;1;
63305;PMS5003;50735;52.060;1.248;2023-11-19T15:32:20;5;3;
63305;PMS5003;50735;52.060;1.248;2023-11-19T15:34:51;2;1;
63305;PMS5003;50735;52.060;1.248;2023-11-19T15:37:23;1;1;
63305;PMS5003;50735;52.060;1.248;2023-11-19T15:39:55;2;2;
63305;PMS5003;50735;52.060;1.248;2023-11-19T15:42:27;3;2;
63305;PMS5003;50735;52.060;1.248;2023-11-19T15:44:58;2;0;
63305;PMS5003;50735;52.060;1.248;2023-11-19T15:47:30;2;2;
63305;PMS5003;50735;52.060;1.248;2023-11-19T15:50:02;6;3;
63305;PMS5003;50735;52.060;1.248;2023-11-19T15:52:34;1;1;
63305;PMS5003;50735;52.060;1.248;2023-11-19T15:55:06;2;1;
63305;PMS5003;50735;52.060;1.248;2023-11-19T15:57:39;3;2;
63305;PMS5003;50735;52.060;1.248;2023-11-19T16:00:11;2;1;
63305;PMS5003;50735;52.060;1.248;2023-11-19T16:02:43;1;1;
63305;PMS5003;50735;52.060;1.248;2023-11-19T16:05:15;5;1;
63305;PMS5003;50735;52.060;1.248;2023-11-19T16:07:47;3;1;
63305;PMS5003;50735;52.060;1.248;2023-11-19T16:10:19;2;2;
63305;PMS5003;50735;52.060;1.248;2023-11-19T16:12:50;1;1;
63305;PMS5003;50735;52.060;1.248;2023-11-19T16:15:22;3;2;
63305;PMS5003;50735;52.060;1.248;2023-11-19T16:17:54;3;3;
63305;PMS5003;50735;52.060;1.248;2023-11-19T16:20:26;1;1;
63305;PMS5003;50735;52.060;1.248;2023-11-19T16:22:58;2;0;
63305;PMS5003;50735;52.060;1.248;2023-11-19T16:25:29;2;2;
63305;PMS5003;50735;52.060;1.248;2023-11-19T16:28:01;1;1;
63305;PMS5003;50735;52.060;1.248;2023-11-19T16:30:33;2;1;
63305;PMS5003;50735;52.060;1.248;2023-11-19T16:33:05;2;2;
63305;PMS5003;50735;52.060;1.248;2023-11-19T16:35:37;2;2;
63305;PMS5003;50735;52.060;1.248;2023-11-19T16:38:08;6;1;
63305;PMS5003;50735;52.060;1.248;2023-11-19T16:40:40;5;2;
63305;PMS5003;50735;52.060;1.248;2023-11-19T16:43:12;3;1;
63305;PMS5003;50735;52.060;1.248;2023-11-19T16:45:44;2;1;
63305;PMS5003;50735;52.060;1.248;2023-11-19T16:48:15;2;1;
63305;PMS5003;50735;52.060;1.248;2023-11-19T16:50:47;1;1;
63305;PMS5003;50735;52.060;1.248;2023-11-19T16:53:19;4;2;
63305;PMS5003;50735;52.060;1.248;2023-11-19T16:55:51;1;1;
63305;PMS5003;50735;52.060;1.248;2023-11-19T16:58:22;1;1;
63305;PMS5003;50735;52.060;1.248;2023-11-19T17:00:54;6;2;
63305;PMS5003;50735;52.060;1.248;2023-11-19T17:03:26;1;1;
63305;PMS5003;50735;52.060;1.248;2023-11-19T17:05:58;1;1;
63305;PMS5003;50735;52.060;1.248;2023-11-19T17:08:29;1;1;
63305;PMS5003;50735;52.060;1.248;2023-11-19T17:11:01;2;1;
63305;PMS5003;50735;52.060;1.248;2023-11-19T17:13:34;1;1;
63305;PMS5003;50735;52.060;1.248;2023-11-19T17:16:07;1;1;
63305;PMS5003;50735;52.060;1.248;2023-11-19T17:18:39;4;1;